createdAt,value
2023-01-09T00:00:08.637Z,46.87
2023-01-09T00:02:35.278Z,47.67
2023-01-09T00:05:01.825Z,53.23
2023-01-09T00:07:28.363Z,52.10
2023-01-09T00:09:54.831Z,54.00
2023-01-09T00:12:21.354Z,52.60
2023-01-09T00:14:47.918Z,53.73
2023-01-09T00:17:14.423Z,48.03
2023-01-09T00:19:40.907Z,50.30
2023-01-09T00:22:09.620Z,53.63
2023-01-09T00:24:36.462Z,53.37
2023-01-09T00:27:02.995Z,52.17
2023-01-09T00:29:29.469Z,49.03
2023-01-09T00:31:56.012Z,49.80
2023-01-09T00:34:22.524Z,50.90
2023-01-09T00:36:49.061Z,51.73
2023-01-09T00:39:15.673Z,45.30
2023-01-09T00:41:43.184Z,51.00
2023-01-09T00:44:13.769Z,51.03
2023-01-09T00:46:41.539Z,53.80
2023-01-09T00:49:08.063Z,56.30
2023-01-09T00:51:34.601Z,52.60
2023-01-09T00:54:02.004Z,46.67
2023-01-09T00:56:28.619Z,50.83
2023-01-09T00:58:55.195Z,52.83
2023-01-09T01:01:21.805Z,53.00
2023-01-09T01:03:48.345Z,55.90
2023-01-09T01:06:33.581Z,52.23
2023-01-09T01:09:00.080Z,52.93
2023-01-09T01:11:26.614Z,53.20
2023-01-09T01:13:53.249Z,54.87
2023-01-09T01:16:19.970Z,49.67
2023-01-09T01:18:46.576Z,52.70
2023-01-09T01:21:13.380Z,51.47
2023-01-09T01:23:39.937Z,54.67
2023-01-09T01:26:10.473Z,52.97
2023-01-09T01:28:37.017Z,54.00
2023-01-09T01:31:03.863Z,53.97
2023-01-09T01:33:30.571Z,58.23
2023-01-09T01:36:03.765Z,52.83
2023-01-09T01:38:30.525Z,54.80
2023-01-09T01:40:57.085Z,58.93
2023-01-09T01:43:23.658Z,61.73
2023-01-09T01:45:50.196Z,60.93
2023-01-09T01:48:17.834Z,59.53
2023-01-09T01:50:51.530Z,55.93
2023-01-09T01:53:27.197Z,56.13
2023-01-09T01:55:53.685Z,55.17
2023-01-09T01:58:20.322Z,72.57
2023-01-09T02:00:47.183Z,65.47
2023-01-09T02:03:15.507Z,68.50
2023-01-09T02:05:42.255Z,76.47
2023-01-09T02:08:08.783Z,77.77
2023-01-09T02:10:35.377Z,78.77
2023-01-09T02:13:02.151Z,73.30
2023-01-09T02:15:29.432Z,76.80
2023-01-09T02:18:08.087Z,72.53
2023-01-09T02:20:46.287Z,68.77
2023-01-09T02:23:28.060Z,78.57
2023-01-09T02:25:57.595Z,70.27
2023-01-09T02:28:56.074Z,75.13
2023-01-09T02:31:42.909Z,78.47
2023-01-09T02:34:12.635Z,78.93
2023-01-09T02:36:41.330Z,79.60
2023-01-09T02:39:07.807Z,87.77
2023-01-09T02:41:43.568Z,90.67
2023-01-09T02:44:13.181Z,81.20
2023-01-09T02:46:39.721Z,86.80
2023-01-09T02:49:06.239Z,94.30
2023-01-09T02:51:32.753Z,80.30
2023-01-09T02:54:01.626Z,80.67
2023-01-09T02:56:37.269Z,75.70
2023-01-09T02:59:03.849Z,71.83
2023-01-09T03:01:52.405Z,70.20
2023-01-09T03:04:31.485Z,69.57
2023-01-09T03:07:02.860Z,69.17
2023-01-09T03:09:29.617Z,71.83
2023-01-09T03:11:59.080Z,67.47
2023-01-09T03:14:25.805Z,70.07
2023-01-09T03:16:53.211Z,72.93
2023-01-09T03:19:21.102Z,72.97
2023-01-09T03:21:47.642Z,71.37
2023-01-09T03:24:14.210Z,69.53
2023-01-09T03:26:40.690Z,69.07
2023-01-09T03:29:07.226Z,72.30
2023-01-09T03:31:33.772Z,71.13
2023-01-09T03:34:00.333Z,67.47
2023-01-09T03:36:26.825Z,71.33
2023-01-09T03:38:53.293Z,72.60
2023-01-09T03:41:19.904Z,77.50
2023-01-09T03:43:47.975Z,78.87
2023-01-09T03:46:15.197Z,78.47
2023-01-09T03:48:41.830Z,81.53
2023-01-09T03:51:08.392Z,88.43
2023-01-09T03:53:34.868Z,88.87
2023-01-09T03:56:01.360Z,82.10
2023-01-09T03:58:27.900Z,82.70
2023-01-09T04:00:58.599Z,87.97
2023-01-09T04:03:25.169Z,92.10
2023-01-09T04:05:51.879Z,87.90
2023-01-09T04:08:18.625Z,88.93
2023-01-09T04:10:45.723Z,93.73
2023-01-09T04:13:12.336Z,94.07
2023-01-09T04:15:38.845Z,90.73
2023-01-09T04:18:05.458Z,97.17
2023-01-09T04:20:32.123Z,95.80
2023-01-09T04:22:59.826Z,90.47
2023-01-09T04:25:26.608Z,91.37
2023-01-09T04:27:53.237Z,91.20
2023-01-09T04:30:19.795Z,93.50
2023-01-09T04:32:46.346Z,90.60
2023-01-09T04:35:12.913Z,92.93
2023-01-09T04:37:39.399Z,89.80
2023-01-09T04:40:09.202Z,90.47
2023-01-09T04:42:35.701Z,92.73
2023-01-09T04:45:02.265Z,96.80
2023-01-09T04:47:31.085Z,93.07
2023-01-09T04:49:57.725Z,91.33
2023-01-09T04:52:24.206Z,90.17
2023-01-09T04:54:50.780Z,93.97
2023-01-09T04:57:17.464Z,97.53
2023-01-09T04:59:43.990Z,92.70
2023-01-09T05:02:10.649Z,95.13
2023-01-09T05:04:37.445Z,93.87
2023-01-09T05:07:03.920Z,96.23
2023-01-09T05:09:30.504Z,89.20
2023-01-09T05:11:57.039Z,92.37
2023-01-09T05:14:23.524Z,98.87
2023-01-09T05:16:50.239Z,88.77
2023-01-09T05:19:16.753Z,97.50
2023-01-09T05:21:43.276Z,84.83
2023-01-09T05:24:09.767Z,90.17
2023-01-09T05:26:36.355Z,90.57
2023-01-09T05:29:02.922Z,82.00
2023-01-09T05:31:29.513Z,79.90
2023-01-09T05:33:56.131Z,76.83
2023-01-09T05:36:22.609Z,83.77
2023-01-09T05:38:49.096Z,75.40
2023-01-09T05:41:15.589Z,80.97
2023-01-09T05:43:42.127Z,71.27
2023-01-09T05:46:08.825Z,75.27
2023-01-09T05:48:35.340Z,61.90
2023-01-09T05:51:01.903Z,62.93
2023-01-09T05:53:28.385Z,67.03
2023-01-09T05:55:54.896Z,60.27
2023-01-09T05:58:21.452Z,57.13
2023-01-09T06:00:48.727Z,61.63
2023-01-09T06:03:15.313Z,60.73
2023-01-09T06:05:41.856Z,57.30
2023-01-09T06:08:08.396Z,61.27
2023-01-09T06:10:34.876Z,59.80
2023-01-09T06:13:01.617Z,58.33
2023-01-09T06:15:28.127Z,57.83
2023-01-09T06:17:54.761Z,53.57
2023-01-09T06:20:21.251Z,57.97
2023-01-09T06:22:47.754Z,54.70
2023-01-09T06:25:14.327Z,49.57
2023-01-09T06:27:40.822Z,55.60
2023-01-09T06:30:07.772Z,48.60
2023-01-09T06:32:34.308Z,51.00
2023-01-09T06:35:00.854Z,45.20
2023-01-09T06:37:27.360Z,41.90
2023-01-09T06:39:54.861Z,45.37
2023-01-09T06:42:22.132Z,43.87
2023-01-09T06:44:48.644Z,47.37
2023-01-09T06:47:15.197Z,40.63
2023-01-09T06:49:41.715Z,41.00
2023-01-09T06:52:08.186Z,41.07
2023-01-09T06:54:34.757Z,39.40
2023-01-09T06:57:01.308Z,33.87
2023-01-09T06:59:27.836Z,31.57
2023-01-09T07:01:55.333Z,31.40
2023-01-09T07:04:24.984Z,33.40
2023-01-09T07:06:51.530Z,34.80
2023-01-09T07:09:18.233Z,36.13
2023-01-09T07:11:44.819Z,32.20
2023-01-09T07:14:11.356Z,37.77
2023-01-09T07:16:37.990Z,38.67
2023-01-09T07:19:04.482Z,34.20
2023-01-09T07:21:32.791Z,34.50
2023-01-09T07:23:59.573Z,37.73
2023-01-09T07:26:26.202Z,36.13
2023-01-09T07:28:52.722Z,45.17
2023-01-09T07:31:19.261Z,39.07
2023-01-09T07:33:45.773Z,39.60
2023-01-09T07:36:12.535Z,44.67
2023-01-09T07:38:39.782Z,51.70
2023-01-09T07:41:06.311Z,50.00
2023-01-09T07:43:32.793Z,52.30
2023-01-09T07:45:59.388Z,56.80
2023-01-09T07:48:25.987Z,51.90
2023-01-09T07:50:52.498Z,53.00
2023-01-09T07:53:18.996Z,54.37
2023-01-09T07:55:45.523Z,53.47
2023-01-09T07:58:12.027Z,49.70
2023-01-09T08:00:38.551Z,48.30
2023-01-09T08:03:05.181Z,51.40
2023-01-09T08:05:32.119Z,48.97
2023-01-09T08:07:58.728Z,47.50
2023-01-09T08:10:25.299Z,36.57
2023-01-09T08:12:51.906Z,38.97
2023-01-09T08:15:18.471Z,41.17
2023-01-09T08:17:45.390Z,40.87
2023-01-09T08:20:15.351Z,43.27
2023-01-09T08:22:42.052Z,42.60
2023-01-09T08:25:11.249Z,42.97
2023-01-09T08:27:38.626Z,43.57
2023-01-09T08:30:05.442Z,39.97
2023-01-09T08:32:31.950Z,39.80
2023-01-09T08:34:58.585Z,45.00
2023-01-09T08:37:25.080Z,39.43
2023-01-09T08:39:51.651Z,38.53
2023-01-09T08:42:36.843Z,43.50
2023-01-09T08:45:21.928Z,39.80
2023-01-09T08:47:48.450Z,37.60
2023-01-09T08:50:15.234Z,36.97
2023-01-09T08:52:41.903Z,41.57
2023-01-09T08:55:08.697Z,47.97
2023-01-09T08:57:35.243Z,42.20
2023-01-09T09:00:01.958Z,45.43
2023-01-09T09:02:28.506Z,44.10
2023-01-09T09:04:56.420Z,48.43
2023-01-09T09:07:26.765Z,48.90
2023-01-09T09:09:53.833Z,41.33
2023-01-09T09:12:20.435Z,43.07
2023-01-09T09:15:05.944Z,45.60
2023-01-09T09:17:33.584Z,43.40
2023-01-09T09:20:00.457Z,45.93
2023-01-09T09:22:26.989Z,45.70
2023-01-09T09:24:53.482Z,42.03
2023-01-09T09:27:20.072Z,40.13
2023-01-09T09:29:46.543Z,45.47
2023-01-09T09:32:13.091Z,50.67
2023-01-09T09:34:39.883Z,45.83
2023-01-09T09:37:06.507Z,44.47
2023-01-09T09:39:33.122Z,47.17
2023-01-09T09:42:37.336Z,44.30
2023-01-09T09:45:07.097Z,47.63
2023-01-09T09:47:45.188Z,46.33
2023-01-09T09:50:11.682Z,44.37
2023-01-09T09:52:46.307Z,41.40
2023-01-09T09:55:24.418Z,43.87
2023-01-09T09:57:50.942Z,32.43
2023-01-09T10:00:18.611Z,28.93
2023-01-09T10:02:52.078Z,25.40
2023-01-09T10:05:21.765Z,20.97
2023-01-09T10:07:49.068Z,15.60
2023-01-09T10:10:17.206Z,13.20
2023-01-09T10:12:52.292Z,13.33
2023-01-09T10:15:19.882Z,12.47
2023-01-09T10:18:05.327Z,8.30
2023-01-09T10:20:35.849Z,9.97
2023-01-09T10:23:19.087Z,9.20
2023-01-09T10:25:46.265Z,11.00
2023-01-09T10:28:19.211Z,14.07
2023-01-09T10:30:53.530Z,9.33
2023-01-09T10:33:23.037Z,10.83
2023-01-09T10:35:58.646Z,9.37
2023-01-09T10:38:26.211Z,8.47
2023-01-09T10:41:01.391Z,10.63
2023-01-09T10:43:35.183Z,8.37
2023-01-09T10:46:03.401Z,7.30
2023-01-09T10:48:31.835Z,5.87
2023-01-09T10:50:59.559Z,4.10
2023-01-09T10:53:30.773Z,5.47
2023-01-09T10:56:19.102Z,5.43
2023-01-09T10:58:45.616Z,5.93
2023-01-09T11:01:12.133Z,5.63
2023-01-09T11:03:39.163Z,5.50
2023-01-09T11:06:08.867Z,5.43
2023-01-09T11:08:42.266Z,5.43
2023-01-09T11:11:09.059Z,5.23
2023-01-09T11:13:36.660Z,3.73
2023-01-09T11:16:06.309Z,6.60
2023-01-09T11:18:33.368Z,6.27
2023-01-09T11:21:12.731Z,5.43
2023-01-09T11:23:40.753Z,9.33
2023-01-09T11:26:11.059Z,8.23
2023-01-09T11:28:37.620Z,7.83
2023-01-09T11:31:04.305Z,7.53
2023-01-09T11:33:31.615Z,7.67
2023-01-09T11:35:59.507Z,7.50
2023-01-09T11:38:26.148Z,9.67
2023-01-09T11:40:53.802Z,8.30
2023-01-09T11:43:21.449Z,9.13
2023-01-09T11:46:00.247Z,6.33
2023-01-09T11:48:31.012Z,5.17
2023-01-09T11:50:58.370Z,5.20
2023-01-09T11:53:25.240Z,5.43
2023-01-09T11:55:59.109Z,6.70
2023-01-09T11:58:25.690Z,5.93
2023-01-09T12:01:12.570Z,7.60
2023-01-09T12:03:42.150Z,8.97
2023-01-09T12:06:17.566Z,7.27
2023-01-09T12:08:44.170Z,5.50
2023-01-09T12:11:16.415Z,6.30
2023-01-09T12:13:50.248Z,5.17
2023-01-09T12:16:17.012Z,6.73
2023-01-09T12:18:55.773Z,5.60
2023-01-09T12:21:25.733Z,7.20
2023-01-09T12:24:11.119Z,9.97
2023-01-09T12:26:43.256Z,7.77
2023-01-09T12:29:18.304Z,10.13
2023-01-09T12:31:47.844Z,8.00
2023-01-09T12:34:33.339Z,8.37
2023-01-09T12:37:08.884Z,8.27
2023-01-09T12:40:01.280Z,8.87
2023-01-09T12:42:40.157Z,10.17
2023-01-09T12:45:23.304Z,11.77
2023-01-09T12:47:50.258Z,9.93
2023-01-09T12:50:35.660Z,12.33
2023-01-09T12:53:14.690Z,14.23
2023-01-09T12:55:42.664Z,12.87
2023-01-09T12:58:13.087Z,12.17
2023-01-09T13:00:43.076Z,11.90
2023-01-09T13:03:20.884Z,10.97
2023-01-09T13:05:48.319Z,12.57
2023-01-09T13:08:19.237Z,12.20
2023-01-09T13:10:46.251Z,8.27
2023-01-09T13:13:17.749Z,8.30
2023-01-09T13:15:44.713Z,10.80
2023-01-09T13:18:16.155Z,13.13
2023-01-09T13:20:45.223Z,11.33
2023-01-09T13:23:27.028Z,11.30
2023-01-09T13:25:54.121Z,13.13
2023-01-09T13:28:24.579Z,11.50
2023-01-09T13:30:51.090Z,11.97
2023-01-09T13:33:17.632Z,11.10
2023-01-09T13:35:51.190Z,12.97
2023-01-09T13:38:18.332Z,10.83
2023-01-09T13:40:44.896Z,9.30
2023-01-09T13:43:11.438Z,9.93
2023-01-09T13:45:38.107Z,11.53
2023-01-09T13:48:08.001Z,11.03
2023-01-09T13:50:34.588Z,10.43
2023-01-09T13:53:18.061Z,13.63
2023-01-09T13:56:00.003Z,10.13
2023-01-09T13:58:49.862Z,11.37
2023-01-09T14:01:27.185Z,8.40
2023-01-09T14:04:14.687Z,12.50
2023-01-09T14:06:41.434Z,8.33
2023-01-09T14:09:21.053Z,11.57
2023-01-09T14:11:47.628Z,8.40
2023-01-09T14:14:21.195Z,15.10
2023-01-09T14:16:47.828Z,7.00
2023-01-09T14:19:32.408Z,7.70
2023-01-09T14:21:58.985Z,5.63
2023-01-09T14:24:32.797Z,10.57
2023-01-09T14:26:59.934Z,5.67
2023-01-09T14:29:29.513Z,7.17
2023-01-09T14:32:14.902Z,8.23
2023-01-09T14:34:41.460Z,9.43
2023-01-09T14:37:09.067Z,8.30
2023-01-09T14:39:35.612Z,9.40
2023-01-09T14:42:06.964Z,8.30
2023-01-09T14:44:42.770Z,12.43
2023-01-09T14:47:12.374Z,8.83
2023-01-09T14:49:42.402Z,9.63
2023-01-09T14:52:28.424Z,8.27
2023-01-09T14:54:56.294Z,8.90
2023-01-09T14:57:23.596Z,9.67
2023-01-09T14:59:59.404Z,12.63
2023-01-09T15:02:28.077Z,12.33
2023-01-09T15:04:55.829Z,14.07
2023-01-09T15:07:22.689Z,10.70
2023-01-09T15:09:49.270Z,12.70
2023-01-09T15:12:19.758Z,11.67
2023-01-09T15:14:46.260Z,12.50
2023-01-09T15:17:20.501Z,14.70
2023-01-09T15:19:47.144Z,14.90
2023-01-09T15:22:32.695Z,14.93
2023-01-09T15:24:59.295Z,15.63
2023-01-09T15:27:25.870Z,15.17
2023-01-09T15:29:52.445Z,16.07
2023-01-09T15:32:22.008Z,11.47
2023-01-09T15:34:48.645Z,12.57
2023-01-09T15:37:32.934Z,14.03
2023-01-09T15:39:59.915Z,14.90
2023-01-09T15:42:45.558Z,22.50
2023-01-09T15:45:24.331Z,18.40
2023-01-09T15:47:50.883Z,15.43
2023-01-09T15:50:17.871Z,17.17
2023-01-09T15:52:44.652Z,14.97
2023-01-09T15:55:26.305Z,14.83
2023-01-09T15:57:53.190Z,13.17
2023-01-09T16:00:30.571Z,13.53
2023-01-09T16:03:12.345Z,12.77
2023-01-09T16:05:45.720Z,12.80
2023-01-09T16:08:17.947Z,14.23
2023-01-09T16:10:44.707Z,11.57
2023-01-09T16:13:14.732Z,14.33
2023-01-09T16:15:42.842Z,13.67
2023-01-09T16:18:15.648Z,14.40
2023-01-09T16:20:42.371Z,17.00
2023-01-09T16:23:22.317Z,16.87
2023-01-09T16:25:48.901Z,19.47
2023-01-09T16:28:15.346Z,18.20
2023-01-09T16:30:51.136Z,19.30
2023-01-09T16:33:19.686Z,22.40
2023-01-09T16:35:46.838Z,33.43
2023-01-09T16:38:16.502Z,26.63
2023-01-09T16:41:31.016Z,21.60
2023-01-09T16:43:57.583Z,23.90
2023-01-09T16:46:24.288Z,27.27
2023-01-09T16:48:50.905Z,30.13
2023-01-09T16:51:18.258Z,29.57
2023-01-09T16:53:44.813Z,34.93
2023-01-09T16:56:18.634Z,32.23
2023-01-09T16:58:46.436Z,31.13
2023-01-09T17:01:15.068Z,30.03
2023-01-09T17:03:43.787Z,32.43
2023-01-09T17:06:20.029Z,30.23
2023-01-09T17:08:47.074Z,26.13
2023-01-09T17:11:18.994Z,28.57
2023-01-09T17:13:47.096Z,32.07
2023-01-09T17:16:13.983Z,28.70
2023-01-09T17:18:40.579Z,26.73
2023-01-09T17:21:07.063Z,25.60
2023-01-09T17:23:33.991Z,24.97
2023-01-09T17:26:19.188Z,23.20
2023-01-09T17:28:49.742Z,22.70
2023-01-09T17:31:16.295Z,25.37
2023-01-09T17:33:43.017Z,27.97
2023-01-09T17:36:16.999Z,22.67
2023-01-09T17:38:43.552Z,25.40
2023-01-09T17:41:12.389Z,28.30
2023-01-09T17:43:40.838Z,24.43
2023-01-09T17:46:09.708Z,25.10
2023-01-09T17:48:36.180Z,23.97
2023-01-09T17:51:02.840Z,25.43
2023-01-09T17:53:30.174Z,23.00
2023-01-09T17:55:56.771Z,25.43
2023-01-09T17:58:27.051Z,26.47
2023-01-09T18:00:53.820Z,26.27
2023-01-09T18:03:23.346Z,25.50
2023-01-09T18:05:50.163Z,24.67
2023-01-09T18:08:16.697Z,27.07
2023-01-09T18:10:45.568Z,25.73
2023-01-09T18:13:12.091Z,25.13
2023-01-09T18:15:40.026Z,25.37
2023-01-09T18:18:06.870Z,28.70
2023-01-09T18:20:33.464Z,34.50
2023-01-09T18:23:00.142Z,36.30
2023-01-09T18:25:26.680Z,41.33
2023-01-09T18:27:53.206Z,44.63
2023-01-09T18:30:19.859Z,44.13
2023-01-09T18:32:46.479Z,31.47
2023-01-09T18:35:13.126Z,31.30
2023-01-09T18:37:39.614Z,29.60
2023-01-09T18:40:06.480Z,30.60
2023-01-09T18:42:36.464Z,30.60
2023-01-09T18:45:03.244Z,27.20
2023-01-09T18:47:30.110Z,28.30
2023-01-09T18:49:56.901Z,37.83
2023-01-09T18:52:23.599Z,35.23
2023-01-09T18:54:50.889Z,36.47
2023-01-09T18:57:17.534Z,36.50
2023-01-09T18:59:44.459Z,38.63
2023-01-09T19:02:21.708Z,40.57
2023-01-09T19:04:48.392Z,34.57
2023-01-09T19:07:15.315Z,41.43
2023-01-09T19:09:44.741Z,40.40
2023-01-09T19:12:11.488Z,37.23
2023-01-09T19:14:38.475Z,36.70
2023-01-09T19:17:05.127Z,35.27
2023-01-09T19:19:31.865Z,36.63
2023-01-09T19:21:58.554Z,38.10
2023-01-09T19:24:27.603Z,34.77
2023-01-09T19:26:54.390Z,33.47
2023-01-09T19:29:21.174Z,34.07
2023-01-09T19:31:48.745Z,30.33
2023-01-09T19:34:16.435Z,29.60
2023-01-09T19:36:44.050Z,37.03
2023-01-09T19:39:10.995Z,29.27
2023-01-09T19:41:37.519Z,38.13
2023-01-09T19:44:04.245Z,35.50
2023-01-09T19:46:33.649Z,51.60
2023-01-09T19:49:05.171Z,43.50
2023-01-09T19:51:34.997Z,38.87
2023-01-09T19:56:31.395Z,33.33
2023-01-09T19:58:59.150Z,37.53
2023-01-09T20:01:27.112Z,36.23
2023-01-09T20:03:54.239Z,33.13
2023-01-09T20:06:27.758Z,34.47
2023-01-09T20:08:55.358Z,45.63
2023-01-09T20:11:22.441Z,48.33
2023-01-09T20:13:49.353Z,40.13
2023-01-09T20:16:23.405Z,38.27
2023-01-09T20:18:50.314Z,44.37
2023-01-09T20:21:18.648Z,49.57
2023-01-09T20:23:45.381Z,41.07
2023-01-09T20:26:12.040Z,41.03
2023-01-09T20:28:38.890Z,36.47
2023-01-09T20:31:06.113Z,33.77
2023-01-09T20:33:32.797Z,54.60
2023-01-09T20:36:02.935Z,46.20
2023-01-09T20:38:29.638Z,43.37
2023-01-09T20:40:56.486Z,43.60
2023-01-09T20:43:23.316Z,44.43
2023-01-09T20:45:50.140Z,43.03
2023-01-09T20:48:16.886Z,43.27
2023-01-09T20:50:50.809Z,45.10
2023-01-09T20:53:20.318Z,43.37
2023-01-09T20:55:46.847Z,34.73
2023-01-09T20:58:13.588Z,38.17
2023-01-09T21:00:40.161Z,39.13
2023-01-09T21:03:06.945Z,37.47
2023-01-09T21:05:33.523Z,35.60
2023-01-09T21:08:00.277Z,34.53
2023-01-09T21:10:27.187Z,34.37
2023-01-09T21:12:53.903Z,33.97
2023-01-09T21:15:21.808Z,32.87
2023-01-09T21:17:48.604Z,30.97
2023-01-09T21:20:22.964Z,24.60
2023-01-09T21:22:49.608Z,29.03
2023-01-09T21:25:16.847Z,28.27
2023-01-09T21:27:46.027Z,28.80
2023-01-09T21:30:12.896Z,37.60
2023-01-09T21:32:40.455Z,34.73
2023-01-09T21:35:07.288Z,35.30
2023-01-09T21:37:34.633Z,33.00
2023-01-09T21:40:01.450Z,35.87
2023-01-09T21:42:46.658Z,29.13
2023-01-09T21:45:35.097Z,32.80
2023-01-09T21:48:02.799Z,33.97
2023-01-09T21:50:29.582Z,33.17
2023-01-09T21:52:56.170Z,34.47
2023-01-09T21:55:22.826Z,30.03
2023-01-09T21:57:49.396Z,31.30
2023-01-09T22:00:16.338Z,32.83
2023-01-09T22:02:42.967Z,31.13
2023-01-09T22:05:09.539Z,32.23
2023-01-09T22:07:36.091Z,34.20
2023-01-09T22:10:02.685Z,37.10
2023-01-09T22:12:29.244Z,33.30
2023-01-09T22:14:55.805Z,35.20
2023-01-09T22:17:22.347Z,36.77
2023-01-09T22:19:48.938Z,39.10
2023-01-09T22:22:15.587Z,39.93
2023-01-09T22:24:42.203Z,37.20
2023-01-09T22:27:08.909Z,36.20
2023-01-09T22:29:35.699Z,32.67
2023-01-09T22:32:02.361Z,33.97
2023-01-09T22:34:29.020Z,35.90
2023-01-09T22:36:55.595Z,34.07
2023-01-09T22:39:22.274Z,31.50
2023-01-09T22:41:52.617Z,30.00
2023-01-09T22:44:19.657Z,35.07
2023-01-09T22:46:46.288Z,30.17
2023-01-09T22:49:14.252Z,31.33
2023-01-09T22:51:40.904Z,32.43
2023-01-09T22:54:07.645Z,36.23
2023-01-09T22:56:34.239Z,38.67
2023-01-09T22:59:01.237Z,37.67
2023-01-09T23:01:28.001Z,42.83
2023-01-09T23:03:56.611Z,40.20
2023-01-09T23:06:23.636Z,39.87
2023-01-09T23:08:53.607Z,35.30
2023-01-09T23:11:41.715Z,34.70
2023-01-09T23:14:08.295Z,33.17
2023-01-09T23:16:37.808Z,38.57
2023-01-09T23:19:06.957Z,35.53
2023-01-09T23:21:33.909Z,35.40
2023-01-09T23:24:00.531Z,34.40
2023-01-09T23:26:27.098Z,34.40
2023-01-09T23:28:53.603Z,39.77
2023-01-09T23:31:20.302Z,36.80
2023-01-09T23:33:46.898Z,34.57
2023-01-09T23:36:13.440Z,30.27
2023-01-09T23:38:39.983Z,33.23
2023-01-09T23:41:08.533Z,30.17
2023-01-09T23:43:35.075Z,29.20
2023-01-09T23:46:01.860Z,28.73
2023-01-09T23:48:28.415Z,24.00
2023-01-09T23:50:55.132Z,23.43
2023-01-09T23:53:22.409Z,23.73
2023-01-09T23:55:49.415Z,23.03
2023-01-09T23:58:16.354Z,17.50
